createdAt,value
2022-12-26T00:00:29.881Z,88.51
2022-12-26T00:02:56.994Z,88.47
2022-12-26T00:05:23.703Z,88.44
2022-12-26T00:07:50.456Z,88.42
2022-12-26T00:10:17.415Z,88.37
2022-12-26T00:12:44.031Z,88.38
2022-12-26T00:15:11.030Z,88.41
2022-12-26T00:17:37.976Z,88.36
2022-12-26T00:20:05.163Z,88.30
2022-12-26T00:22:31.831Z,88.25
2022-12-26T00:24:58.750Z,88.24
2022-12-26T00:27:25.356Z,88.18
2022-12-26T00:29:52.045Z,88.21
2022-12-26T00:32:18.952Z,88.23
2022-12-26T00:34:45.593Z,88.29
2022-12-26T00:37:12.321Z,88.24
2022-12-26T00:39:39.227Z,88.13
2022-12-26T00:42:05.918Z,88.11
2022-12-26T00:44:32.595Z,88.11
2022-12-26T00:46:59.768Z,88.15
2022-12-26T00:49:26.660Z,88.15
2022-12-26T00:51:53.390Z,88.15
2022-12-26T00:54:20.296Z,88.16
2022-12-26T00:56:47.022Z,88.13
2022-12-26T00:59:13.722Z,88.11
2022-12-26T01:01:40.886Z,88.09
2022-12-26T01:04:07.658Z,88.02
2022-12-26T01:06:34.377Z,88.00
2022-12-26T01:09:01.564Z,87.99
2022-12-26T01:11:40.807Z,88.00
2022-12-26T01:14:18.023Z,88.03
2022-12-26T01:16:46.555Z,88.05
2022-12-26T01:19:14.207Z,88.04
2022-12-26T01:21:43.064Z,88.06
2022-12-26T01:24:10.334Z,88.07
2022-12-26T01:26:37.284Z,88.06
2022-12-26T01:29:03.910Z,87.98
2022-12-26T01:31:30.781Z,87.95
2022-12-26T01:33:57.759Z,87.94
2022-12-26T01:36:24.490Z,87.91
2022-12-26T01:38:51.167Z,87.87
2022-12-26T01:41:19.599Z,87.85
2022-12-26T01:44:27.031Z,87.84
2022-12-26T01:46:53.978Z,87.85
2022-12-26T01:49:21.216Z,87.86
2022-12-26T01:51:56.983Z,87.88
2022-12-26T01:54:39.774Z,87.85
2022-12-26T01:57:19.372Z,87.82
2022-12-26T01:59:48.157Z,87.85
2022-12-26T02:02:16.918Z,87.84
2022-12-26T02:05:07.567Z,87.86
2022-12-26T02:07:37.969Z,87.88
2022-12-26T02:10:10.741Z,87.87
2022-12-26T02:12:39.192Z,87.86
2022-12-26T02:15:11.204Z,87.87
2022-12-26T02:17:39.202Z,87.88
2022-12-26T02:20:26.114Z,87.86
2022-12-26T02:23:01.677Z,87.82
2022-12-26T02:25:34.633Z,87.81
2022-12-26T02:28:20.255Z,87.79
2022-12-26T02:31:03.682Z,87.82
2022-12-26T02:34:01.018Z,87.81
2022-12-26T02:36:57.821Z,87.83
2022-12-26T02:39:54.980Z,87.78
2022-12-26T02:42:43.576Z,87.74
2022-12-26T02:45:42.793Z,87.72
2022-12-26T02:48:20.511Z,87.70
2022-12-26T02:51:18.775Z,87.68
2022-12-26T02:54:14.671Z,87.66
2022-12-26T02:57:10.127Z,87.70
2022-12-26T03:00:13.789Z,87.70
2022-12-26T03:03:06.247Z,87.74
2022-12-26T03:06:15.871Z,87.71
2022-12-26T03:09:22.156Z,87.68
2022-12-26T03:12:14.452Z,87.68
2022-12-26T03:14:44.588Z,87.68
2022-12-26T03:17:21.065Z,87.72
2022-12-26T03:20:03.409Z,87.73
2022-12-26T03:23:09.061Z,87.75
2022-12-26T03:25:54.158Z,87.70
2022-12-26T03:28:25.650Z,87.70
2022-12-26T03:30:55.499Z,87.67
2022-12-26T03:33:41.054Z,87.68
2022-12-26T03:36:13.302Z,87.71
2022-12-26T03:39:16.253Z,87.70
2022-12-26T03:42:14.209Z,87.70
2022-12-26T03:45:08.411Z,87.68
2022-12-26T03:48:05.433Z,87.64
2022-12-26T03:51:01.964Z,87.62
2022-12-26T03:53:53.329Z,87.65
2022-12-26T03:56:48.673Z,87.66
2022-12-26T03:59:42.713Z,87.64
2022-12-26T04:02:31.397Z,87.60
2022-12-26T04:05:22.937Z,87.55
2022-12-26T04:08:18.849Z,87.50
2022-12-26T04:11:15.415Z,87.48
2022-12-26T04:14:03.634Z,87.43
2022-12-26T04:16:56.747Z,87.42
2022-12-26T04:19:49.531Z,87.43
2022-12-26T04:22:44.318Z,87.48
2022-12-26T04:25:48.756Z,87.49
2022-12-26T04:28:38.844Z,87.47
2022-12-26T04:31:49.547Z,87.46
2022-12-26T04:34:49.547Z,87.40
2022-12-26T04:37:43.995Z,87.38
2022-12-26T04:40:36.369Z,87.32
2022-12-26T04:43:48.708Z,87.33
2022-12-26T04:46:10.346Z,87.32
2022-12-26T04:49:03.603Z,87.31
2022-12-26T04:51:30.572Z,87.32
2022-12-26T04:53:57.251Z,87.27
2022-12-26T04:56:23.902Z,87.28
2022-12-26T04:58:50.793Z,87.28
2022-12-26T05:01:35.941Z,87.27
2022-12-26T05:04:21.652Z,87.25
2022-12-26T05:07:06.972Z,87.27
2022-12-26T05:09:37.341Z,87.35
2022-12-26T05:12:07.247Z,87.37
2022-12-26T05:14:36.020Z,87.36
2022-12-26T05:17:23.075Z,87.36
2022-12-26T05:20:08.988Z,87.37
2022-12-26T05:23:02.659Z,87.38
2022-12-26T05:25:52.790Z,87.38
2022-12-26T05:28:39.767Z,87.37
2022-12-26T05:31:07.091Z,87.35
2022-12-26T05:33:52.409Z,87.36
2022-12-26T05:36:21.637Z,87.32
2022-12-26T05:38:49.032Z,87.26
2022-12-26T05:41:16.582Z,87.23
2022-12-26T05:43:44.292Z,87.22
2022-12-26T05:46:11.000Z,87.21
2022-12-26T05:48:37.652Z,87.21
2022-12-26T05:51:05.201Z,87.23
2022-12-26T05:53:32.911Z,87.24
2022-12-26T05:56:05.322Z,87.23
2022-12-26T05:58:32.935Z,87.27
2022-12-26T06:01:16.549Z,87.32
2022-12-26T06:03:47.929Z,87.29
2022-12-26T06:06:16.002Z,87.25
2022-12-26T06:08:43.625Z,87.27
2022-12-26T06:11:12.863Z,87.25
2022-12-26T06:13:40.672Z,87.28
2022-12-26T06:16:13.877Z,87.21
2022-12-26T06:18:41.308Z,87.17
2022-12-26T06:21:12.044Z,87.14
2022-12-26T06:23:38.939Z,87.14
2022-12-26T06:26:07.168Z,87.18
2022-12-26T06:28:34.528Z,87.18
2022-12-26T06:31:10.417Z,87.17
2022-12-26T06:33:37.629Z,87.16
2022-12-26T06:36:09.566Z,87.14
2022-12-26T06:38:36.322Z,87.08
2022-12-26T06:41:11.039Z,87.05
2022-12-26T06:43:38.562Z,87.07
2022-12-26T06:46:07.575Z,87.11
2022-12-26T06:48:39.709Z,87.09
2022-12-26T06:51:10.820Z,87.06
2022-12-26T06:53:37.520Z,87.04
2022-12-26T06:56:18.568Z,87.05
2022-12-26T06:58:46.492Z,87.03
2022-12-26T07:01:16.287Z,86.98
2022-12-26T07:03:50.846Z,86.93
2022-12-26T07:06:26.406Z,86.89
2022-12-26T07:08:56.192Z,86.88
2022-12-26T07:11:25.916Z,86.89
2022-12-26T10:26:23.335Z,86.93
2022-12-26T10:29:00.118Z,86.93
2022-12-26T10:31:46.378Z,87.41
2022-12-26T10:34:32.187Z,87.20
2022-12-26T10:37:26.588Z,87.03
2022-12-26T10:40:02.899Z,86.79
2022-12-26T10:42:42.450Z,86.59
2022-12-26T10:45:16.684Z,86.53
2022-12-26T10:47:53.863Z,86.44
2022-12-26T10:50:28.150Z,86.38
2022-12-26T10:52:57.254Z,86.29
2022-12-26T10:55:34.780Z,86.20
2022-12-26T10:58:07.133Z,86.18
2022-12-26T11:00:34.625Z,86.09
2022-12-26T11:03:06.432Z,86.00
2022-12-26T11:06:06.302Z,85.96
2022-12-26T11:08:29.669Z,85.93
2022-12-26T11:11:07.156Z,85.92
2022-12-26T11:13:46.056Z,85.89
2022-12-26T11:16:13.148Z,85.81
2022-12-26T11:18:51.924Z,85.75
2022-12-26T11:21:18.579Z,85.67
2022-12-26T11:23:47.164Z,85.54
2022-12-26T11:26:41.080Z,85.51
2022-12-26T11:29:24.100Z,85.55
2022-12-26T11:31:58.343Z,85.54
2022-12-26T11:34:39.504Z,85.66
2022-12-26T11:37:07.433Z,85.53
2022-12-26T11:39:37.930Z,85.44
2022-12-26T11:42:12.785Z,85.42
2022-12-26T11:44:45.594Z,85.42
2022-12-26T11:47:17.348Z,85.42
2022-12-26T11:50:05.742Z,85.40
2022-12-26T11:52:43.722Z,85.44
2022-12-26T11:55:23.093Z,85.46
2022-12-26T11:58:22.957Z,85.41
2022-12-26T12:00:50.072Z,85.39
2022-12-26T12:03:39.997Z,85.25
2022-12-26T12:06:32.000Z,85.18
2022-12-26T12:09:15.266Z,85.13
2022-12-26T12:11:54.261Z,85.08
2022-12-26T12:14:50.883Z,84.99
2022-12-26T12:17:48.682Z,85.00
2022-12-26T12:20:30.349Z,84.92
2022-12-26T12:23:14.462Z,84.84
2022-12-26T12:25:59.787Z,84.88
2022-12-26T12:28:58.654Z,84.90
2022-12-26T12:31:34.331Z,84.96
2022-12-26T12:34:25.636Z,84.94
2022-12-26T12:37:04.647Z,84.86
2022-12-26T12:39:59.445Z,84.78
2022-12-26T12:42:31.527Z,84.77
2022-12-26T12:45:16.774Z,84.72
2022-12-26T12:47:52.267Z,84.79
2022-12-26T12:50:30.342Z,84.82
2022-12-26T12:53:18.471Z,84.84
2022-12-26T12:55:55.821Z,84.88
2022-12-26T12:58:31.158Z,84.86
2022-12-26T13:01:15.504Z,84.86
2022-12-26T13:03:51.905Z,84.88
2022-12-26T13:06:25.467Z,84.88
2022-12-26T13:08:57.152Z,84.87
2022-12-26T13:11:29.409Z,84.90
2022-12-26T13:14:19.280Z,84.92
2022-12-26T13:16:55.784Z,84.94
2022-12-26T13:19:27.792Z,84.95
2022-12-26T13:22:01.506Z,84.98
2022-12-26T13:24:45.803Z,85.00
2022-12-26T13:27:29.893Z,85.04
2022-12-26T13:29:57.973Z,85.03
2022-12-26T13:32:30.465Z,85.03
2022-12-26T13:35:00.847Z,85.03
2022-12-26T13:37:39.968Z,85.04
2022-12-26T13:40:13.219Z,85.06
2022-12-26T13:43:03.949Z,85.06
2022-12-26T13:45:43.254Z,85.07
2022-12-26T13:48:16.129Z,85.12
2022-12-26T13:50:51.588Z,85.15
2022-12-26T13:53:25.073Z,85.16
2022-12-26T13:56:04.281Z,85.16
2022-12-26T13:58:52.541Z,85.18
2022-12-26T14:02:07.167Z,85.19
2022-12-26T14:05:02.112Z,85.18
2022-12-26T14:07:59.762Z,85.18
2022-12-26T14:11:08.345Z,85.20
2022-12-26T14:14:01.265Z,85.23
2022-12-26T14:16:37.828Z,85.25
2022-12-26T14:19:24.523Z,85.27
2022-12-26T14:22:03.516Z,85.28
2022-12-26T14:24:42.859Z,85.27
2022-12-26T14:27:24.955Z,85.27
2022-12-26T14:30:21.430Z,85.27
2022-12-26T14:33:17.944Z,85.27
2022-12-26T14:36:02.658Z,85.31
2022-12-26T14:38:35.925Z,85.31
2022-12-26T14:41:08.911Z,85.34
2022-12-26T14:43:41.062Z,85.34
2022-12-26T14:46:35.069Z,85.36
2022-12-26T14:49:22.433Z,85.38
2022-12-26T14:51:49.851Z,85.40
2022-12-26T14:54:23.514Z,85.43
2022-12-26T14:56:51.811Z,85.43
2022-12-26T14:59:33.688Z,85.43
2022-12-26T15:02:19.017Z,85.45
2022-12-26T15:05:06.529Z,85.46
2022-12-26T15:08:13.961Z,85.49
2022-12-26T15:11:02.766Z,85.49
2022-12-26T15:13:58.364Z,85.52
2022-12-26T15:16:52.762Z,85.54
2022-12-26T15:19:58.237Z,85.58
2022-12-26T15:22:45.890Z,85.60
2022-12-26T15:25:39.128Z,85.62
2022-12-26T15:28:27.693Z,85.62
2022-12-26T15:31:16.200Z,85.63
2022-12-26T15:33:49.201Z,85.65
2022-12-26T15:36:41.276Z,85.67
2022-12-26T15:39:38.664Z,85.68
2022-12-26T15:42:38.641Z,85.65
2022-12-26T15:45:29.655Z,85.70
2022-12-26T15:48:19.944Z,85.73
2022-12-26T15:50:58.529Z,85.76
2022-12-26T15:53:52.578Z,85.82
2022-12-26T15:56:37.392Z,85.82
2022-12-26T15:59:34.020Z,85.83
2022-12-26T19:26:29.163Z,89.45
2022-12-26T19:28:56.619Z,89.45
2022-12-26T19:31:23.951Z,90.08
2022-12-26T19:33:50.662Z,90.03
2022-12-26T19:36:17.667Z,89.97
2022-12-26T19:38:44.415Z,89.93
2022-12-26T19:41:13.816Z,89.89
2022-12-26T19:43:41.004Z,89.84
2022-12-26T19:46:11.499Z,89.81
2022-12-26T19:48:38.800Z,89.79
2022-12-26T19:51:12.545Z,89.79
2022-12-26T19:53:40.318Z,89.78
2022-12-26T19:56:29.317Z,89.77
2022-12-26T19:58:56.873Z,89.78
2022-12-26T20:01:29.638Z,89.78
2022-12-26T20:03:58.910Z,89.79
2022-12-26T20:06:27.671Z,89.77
2022-12-26T20:08:58.913Z,89.77
2022-12-26T20:11:29.623Z,89.76
2022-12-26T20:13:56.500Z,89.74
2022-12-26T20:17:03.111Z,89.74
2022-12-26T20:19:12.301Z,89.76
2022-12-26T20:21:39.023Z,89.76
2022-12-26T20:24:05.808Z,89.77
2022-12-26T20:26:32.846Z,89.75
2022-12-26T20:29:01.970Z,89.75
2022-12-26T20:31:29.687Z,89.74
2022-12-26T20:33:57.763Z,89.74
2022-12-26T20:36:27.428Z,89.71
2022-12-26T20:38:56.527Z,89.70
2022-12-26T20:41:24.184Z,89.69
2022-12-26T20:43:51.497Z,89.69
2022-12-26T20:46:24.335Z,89.70
2022-12-26T20:48:51.615Z,89.73
2022-12-26T20:51:31.624Z,89.73
2022-12-26T20:54:02.981Z,89.75
2022-12-26T20:56:29.696Z,89.76
2022-12-26T20:58:59.238Z,89.76
2022-12-26T21:01:27.105Z,89.75
2022-12-26T21:03:55.687Z,89.76
2022-12-26T21:06:25.919Z,89.76
2022-12-26T21:08:53.951Z,89.76
2022-12-26T21:11:23.986Z,89.78
2022-12-26T21:13:54.151Z,89.80
2022-12-26T21:16:42.059Z,89.81
2022-12-26T21:19:15.399Z,89.83
2022-12-26T21:21:46.042Z,89.85
2022-12-26T21:24:16.387Z,89.85
2022-12-26T21:26:43.891Z,89.87
2022-12-26T21:29:16.746Z,89.88
2022-12-26T21:31:50.436Z,89.88
2022-12-26T21:34:20.035Z,89.90
2022-12-26T21:37:05.700Z,89.89
2022-12-26T21:39:33.849Z,89.90
2022-12-26T21:42:01.179Z,89.88
2022-12-26T21:44:27.844Z,89.86
2022-12-26T21:46:54.472Z,89.84
2022-12-26T21:49:21.376Z,89.81
2022-12-26T21:51:48.111Z,89.77
2022-12-26T21:54:35.111Z,89.73
2022-12-26T21:57:02.244Z,89.70
2022-12-26T21:59:47.600Z,89.67
2022-12-26T22:02:34.012Z,89.63
2022-12-26T22:05:01.637Z,89.61
2022-12-26T22:07:28.544Z,89.59
2022-12-26T22:09:55.215Z,89.57
2022-12-26T22:12:40.587Z,89.57
2022-12-26T22:15:28.060Z,89.55
2022-12-26T22:17:55.098Z,89.56
2022-12-26T22:20:21.746Z,89.55
2022-12-26T22:22:49.320Z,89.54
2022-12-26T22:25:16.853Z,89.55
2022-12-26T22:27:43.579Z,89.53
2022-12-26T22:30:11.624Z,89.52
2022-12-26T22:32:38.839Z,89.51
2022-12-26T22:35:06.069Z,89.50
2022-12-26T22:37:32.678Z,89.50
2022-12-26T22:39:59.527Z,89.50
2022-12-26T22:42:26.170Z,89.51
2022-12-26T22:44:52.901Z,89.51
2022-12-26T22:47:20.010Z,89.50
2022-12-26T22:49:46.605Z,89.50
2022-12-26T22:52:15.998Z,89.50
2022-12-26T22:54:45.296Z,89.50
2022-12-26T22:57:12.148Z,89.51
2022-12-26T23:00:07.445Z,89.50
2022-12-26T23:02:25.853Z,89.50
2022-12-26T23:04:52.926Z,89.48
2022-12-26T23:07:21.245Z,89.48
2022-12-26T23:09:48.373Z,89.48
2022-12-26T23:12:34.420Z,89.49
2022-12-26T23:15:01.531Z,89.50
2022-12-26T23:17:51.670Z,89.51
2022-12-26T23:20:38.186Z,89.49
2022-12-26T23:23:05.055Z,89.50
2022-12-26T23:25:32.079Z,89.50
2022-12-26T23:28:17.676Z,89.52
2022-12-26T23:30:44.597Z,89.53
2022-12-26T23:33:11.388Z,89.53
2022-12-26T23:35:39.902Z,89.54
2022-12-26T23:38:06.926Z,89.56
2022-12-26T23:40:33.720Z,89.56
2022-12-26T23:43:00.433Z,89.55
2022-12-26T23:45:27.525Z,89.56
2022-12-26T23:47:54.145Z,89.57
2022-12-26T23:50:20.799Z,89.58
2022-12-26T23:52:47.778Z,89.59
2022-12-26T23:55:14.465Z,89.58
2022-12-26T23:57:41.094Z,89.60
